PPIZ METAR and TAF weather

Enter ICAO airport designator
Station Type Date Time Source
PPIZ METAR 2024/06/14 01:56 UTC NOAA

PPIZ 140156Z AUTO 25007KT 10SM FEW110 02/01 A3019 RMK AO2 SLP225 T00220006 FZRANO


Station Type Date Time Source
PPIZ Decoded METAR 2024/06/14 01:56 UTC NOAA

Point Lay, Point Lay LRRS Airport, AK, United States (PPIZ) 69-43N 163-00W
Jun 13, 2024 - 09:56 PM EDT / 2024.06.14 0156 UTC
Wind: from the WSW (250 degrees) at 8 MPH (7 KT):0
Visibility: 10 mile(s):0
Sky conditions: mostly clear
Temperature: 36.0 F (2.2 C)
Dew Point: 33.1 F (0.6 C)
Relative Humidity: 89%
Pressure (altimeter): 30.19 in. Hg (1022 hPa)
ob: PPIZ 140156Z AUTO 25007KT 10SM FEW110 02/01 A3019 RMK AO2 SLP225 T00220006 FZRANO
cycle: 2

Station Type Date Time Source
PPIZ TAF UTC NOAA

Error!

Example: see airport list